Time;durP1;ratioP1;P1;durP2;ratioP2;P2;SDS_P1;SDS_P2;PMS_P1;PMS_P2;Temp;Humidity;BMP_temperature;BMP_pressure;BME280_temperature;BME280_humidity;BME280_pressure;Samples;Min_cycle;Max_cycle;Signal;HPM_P1;HPM_P2
2021/07/28 00:00:53;;;;;;;8.50;4.80;;;;;;;20.54;64.10;100371.47;5055503;28;20037;-80
2021/07/28 00:03:20;;;;;;;10.05;5.07;;;;;;;20.49;64.59;100373.81;5034717;28;20041;-79
2021/07/28 00:05:47;;;;;;;8.80;4.60;;;;;;;20.50;64.55;100375.47;5055397;28;20048;-79
2021/07/28 00:12:32;;;;;;;9.90;5.32;;;;;;;20.42;65.57;100372.72;5042054;28;20063;-78
2021/07/28 00:15:00;;;;;;;6.80;4.97;;;;;;;20.40;65.44;100364.88;5037436;28;20405;-77
2021/07/28 00:17:28;;;;;;;6.95;5.43;;;;;;;20.35;66.12;100369.84;4999759;28;20049;-78
2021/07/28 00:20:10;;;;;;;8.05;5.13;;;;;;;20.35;65.99;100360.97;5034862;28;20064;-78
2021/07/28 00:26:05;;;;;;;7.05;4.70;;;;;;;20.30;66.24;100352.59;5043087;28;20048;-78
2021/07/28 00:28:32;;;;;;;9.02;5.13;;;;;;;20.32;65.53;100347.97;5018189;28;20534;-77
2021/07/28 00:31:00;;;;;;;7.38;5.50;;;;;;;20.32;66.22;100355.97;5054764;28;20049;-78
2021/07/28 00:33:27;;;;;;;12.55;5.13;;;;;;;20.33;65.99;100357.66;5001750;28;20068;-77
2021/07/28 00:35:54;;;;;;;6.78;4.70;;;;;;;20.35;66.76;100350.28;5037221;28;20384;-79
2021/07/28 00:38:24;;;;;;;5.45;4.82;;;;;;;20.31;66.50;100352.47;5052848;28;20041;-79
2021/07/28 00:41:44;;;;;;;6.88;4.57;;;;;;;20.15;67.12;100358.56;5035204;28;20057;-78
2021/07/28 00:44:12;;;;;;;10.38;5.18;;;;;;;20.04;67.41;100356.16;4998980;28;20053;-78
2021/07/28 00:46:40;;;;;;;8.18;5.00;;;;;;;20.01;68.15;100356.47;4998831;28;20074;-79
2021/07/28 00:49:07;;;;;;;7.40;4.95;;;;;;;19.89;68.28;100355.06;5031558;28;20044;-79
2021/07/28 00:51:35;;;;;;;8.23;5.78;;;;;;;19.81;68.58;100346.97;5024948;28;20140;-80
2021/07/28 00:54:02;;;;;;;6.03;5.10;;;;;;;19.79;68.90;100349.81;5016256;28;20049;-81
2021/07/28 00:56:58;;;;;;;6.40;4.78;;;;;;;19.71;69.23;100347.09;5025936;28;20076;-82
2021/07/28 00:59:25;;;;;;;10.10;5.57;;;;;;;19.65;69.71;100348.56;5007260;28;20041;-78
2021/07/28 01:01:52;;;;;;;8.05;4.82;;;;;;;19.55;70.73;100350.44;5052535;28;20460;-78
2021/07/28 01:04:20;;;;;;;7.32;5.32;;;;;;;19.59;70.44;100353.66;5035486;28;20086;-80
2021/07/28 01:06:47;;;;;;;9.25;5.25;;;;;;;19.51;70.45;100353.59;5030359;28;20046;-79
2021/07/28 01:09:14;;;;;;;7.90;4.80;;;;;;;19.43;70.99;100351.69;5004609;28;20430;-79
2021/07/28 01:11:41;;;;;;;5.57;4.75;;;;;;;19.58;71.13;100354.63;5049645;28;20103;-79
2021/07/28 01:14:08;;;;;;;12.35;5.38;;;;;;;19.53;71.27;100356.94;5016891;28;20147;-78
2021/07/28 01:16:47;;;;;;;7.72;5.80;;;;;;;19.48;72.01;100357.38;5018820;28;20056;-78
2021/07/28 01:19:16;;;;;;;7.55;5.10;;;;;;;19.60;71.86;100345.50;5037061;28;20124;-80
2021/07/28 01:21:46;;;;;;;8.13;5.47;;;;;;;19.36;72.44;100348.81;5033292;28;20091;-78
2021/07/28 01:24:15;;;;;;;6.00;4.95;;;;;;;19.21;73.02;100352.97;4999516;28;20083;-79
2021/07/28 01:26:43;;;;;;;5.85;4.93;;;;;;;19.05;73.76;100350.16;5013082;28;20091;-78
2021/07/28 01:29:11;;;;;;;6.10;4.85;;;;;;;19.12;73.97;100341.41;5023809;28;20444;-78
2021/07/28 01:31:40;;;;;;;4.93;4.43;;;;;;;19.19;74.20;100345.16;5017243;28;20453;-79
2021/07/28 01:34:08;;;;;;;12.57;5.50;;;;;;;19.21;73.77;100352.97;5008903;28;20057;-78
2021/07/28 01:36:36;;;;;;;6.05;5.45;;;;;;;19.09;74.44;100346.19;5014344;28;20153;-79
2021/07/28 01:39:04;;;;;;;10.15;5.63;;;;;;;19.15;74.56;100351.78;4999110;28;20049;-78
2021/07/28 01:41:32;;;;;;;6.70;5.97;;;;;;;19.02;75.04;100345.13;5017520;28;20140;-79
2021/07/28 01:44:00;;;;;;;7.65;5.43;;;;;;;19.07;75.15;100348.19;5017749;28;20068;-79
2021/07/28 01:47:25;;;;;;;6.55;5.05;;;;;;;19.02;75.54;100351.31;5018716;28;20080;-79
2021/07/28 01:49:53;;;;;;;6.63;5.25;;;;;;;18.99;75.50;100356.94;5035041;28;20417;-79
2021/07/28 01:52:20;;;;;;;6.35;5.50;;;;;;;19.04;75.78;100354.66;5035225;28;20071;-80
2021/07/28 01:54:47;;;;;;;14.35;5.90;;;;;;;18.97;75.44;100346.44;5053021;28;20061;-79
2021/07/28 01:57:15;;;;;;;8.45;4.90;;;;;;;18.81;76.40;100361.41;5032066;28;20049;-80
2021/07/28 01:59:42;;;;;;;6.28;5.28;;;;;;;18.93;76.71;100354.88;5019458;28;20072;-79
2021/07/28 02:02:09;;;;;;;9.55;5.47;;;;;;;18.80;76.86;100349.91;5014779;28;20041;-80
2021/07/28 02:04:37;;;;;;;6.30;5.13;;;;;;;18.83;77.48;100351.44;5012732;28;20057;-78
2021/07/28 02:07:05;;;;;;;8.10;5.60;;;;;;;18.83;77.37;100349.63;5017904;28;20060;-79
2021/07/28 02:09:32;;;;;;;6.45;5.55;;;;;;;18.77;77.94;100352.03;5018759;28;20059;-78
2021/07/28 02:11:59;;;;;;;8.48;5.70;;;;;;;18.97;76.70;100350.94;5033496;28;20095;-80
2021/07/28 02:14:27;;;;;;;9.10;5.82;;;;;;;18.84;77.10;100345.97;5051699;28;20124;-78
2021/07/28 02:16:54;;;;;;;6.20;5.60;;;;;;;18.76;77.58;100348.53;5051860;28;21403;-80
2021/07/28 02:19:21;;;;;;;8.43;5.55;;;;;;;18.78;77.41;100346.56;5014413;28;20136;-78
2021/07/28 02:21:49;;;;;;;6.38;5.43;;;;;;;18.95;77.11;100356.41;5050014;28;20591;-78
2021/07/28 02:24:16;;;;;;;10.85;5.88;;;;;;;18.93;77.27;100350.38;5017088;28;20251;-78
2021/07/28 02:26:43;;;;;;;6.25;5.18;;;;;;;18.90;76.78;100347.19;5013894;28;20483;-77
2021/07/28 02:29:10;;;;;;;9.05;5.75;;;;;;;18.87;77.36;100345.66;5017255;28;20053;-78
2021/07/28 02:31:38;;;;;;;8.20;5.40;;;;;;;19.07;76.77;100342.84;5050513;28;20064;-78
2021/07/28 02:34:05;;;;;;;13.38;4.85;;;;;;;19.14;75.98;100346.59;5033929;28;20522;-78
2021/07/28 02:40:58;;;;;;;7.35;5.53;;;;;;;18.90;76.52;100328.50;5053432;28;20475;-78
2021/07/28 02:43:25;;;;;;;8.73;5.55;;;;;;;18.91;77.20;100327.50;5049359;28;20053;-78
2021/07/28 02:45:52;;;;;;;6.18;5.03;;;;;;;18.97;77.56;100333.09;5034353;28;20488;-79
2021/07/28 02:48:19;;;;;;;6.25;5.63;;;;;;;19.10;76.83;100330.06;5049702;28;20398;-78
2021/07/28 02:50:46;;;;;;;7.68;5.80;;;;;;;19.12;76.57;100341.41;5034620;28;20136;-77
2021/07/28 02:53:46;;;;;;;7.00;5.57;;;;;;;19.17;76.29;100355.13;5033788;28;20472;-78
2021/07/28 02:56:13;;;;;;;8.35;4.90;;;;;;;19.01;76.66;100344.31;5034637;28;20088;-78
2021/07/28 02:58:40;;;;;;;6.88;5.75;;;;;;;18.87;77.37;100343.00;5033132;28;20130;-79
2021/07/28 03:01:08;;;;;;;7.50;5.50;;;;;;;19.02;77.51;100335.31;5052140;28;20061;-78
2021/07/28 03:03:35;;;;;;;10.68;6.15;;;;;;;18.92;77.61;100332.72;5042756;28;20185;-78
2021/07/28 03:06:03;;;;;;;6.15;5.30;;;;;;;18.82;77.98;100331.94;4998112;28;20462;-79
2021/07/28 03:08:30;;;;;;;9.05;5.65;;;;;;;18.83;78.17;100335.44;5029861;28;20132;-78
2021/07/28 03:11:02;;;;;;;9.65;5.88;;;;;;;19.00;77.61;100333.75;5044773;28;20508;-79
2021/07/28 03:13:29;;;;;;;6.25;5.38;;;;;;;19.15;77.25;100333.09;5032128;28;20492;-79
2021/07/28 03:16:04;;;;;;;9.35;5.63;;;;;;;19.28;76.18;100331.88;5053057;28;20136;-78
2021/07/28 03:18:31;;;;;;;7.25;5.22;;;;;;;19.32;76.59;100335.88;5001296;28;20341;-79
2021/07/28 03:25:21;;;;;;;6.07;5.38;;;;;;;19.26;76.99;100326.66;5035020;28;20111;-78
2021/07/28 03:27:48;;;;;;;8.15;6.07;;;;;;;19.47;76.23;100334.38;5032372;28;20487;-78
2021/07/28 03:30:15;;;;;;;7.38;5.38;;;;;;;19.30;76.28;100332.56;5002789;28;20049;-80
2021/07/28 03:32:47;;;;;;;7.57;5.85;;;;;;;19.23;77.29;100343.00;4985971;28;20438;-78
2021/07/28 03:35:14;;;;;;;8.73;6.65;;;;;;;19.21;78.51;100337.81;5018709;28;20129;-77
2021/07/28 03:37:41;;;;;;;10.15;6.65;;;;;;;19.52;77.80;100337.41;5023918;28;20496;-77
2021/07/28 03:40:09;;;;;;;9.90;7.47;;;;;;;19.49;77.89;100332.38;5021914;28;20465;-79
2021/07/28 03:42:37;;;;;;;8.80;6.70;;;;;;;19.57;77.69;100340.44;5021658;28;20081;-79
2021/07/28 03:45:05;;;;;;;8.93;6.43;;;;;;;19.33;78.30;100348.25;5022794;28;20037;-80
2021/07/28 03:51:09;;;;;;;8.57;6.47;;;;;;;19.41;78.47;100359.84;5056134;28;20454;-79
2021/07/28 03:53:36;;;;;;;10.23;6.00;;;;;;;19.54;78.04;100364.78;5022035;28;20080;-77
2021/07/28 03:56:22;;;;;;;7.43;5.18;;;;;;;19.40;77.54;100366.16;5057131;28;20057;-78
2021/07/28 03:58:52;;;;;;;8.40;5.97;;;;;;;19.52;76.72;100360.59;5020956;28;20049;-79
2021/07/28 04:01:20;;;;;;;10.32;6.63;;;;;;;19.48;77.45;100349.38;5040277;28;20067;-76
2021/07/28 04:03:47;;;;;;;7.70;5.53;;;;;;;19.48;76.25;100341.38;5013380;28;20056;-79
2021/07/28 04:06:17;;;;;;;7.43;5.97;;;;;;;19.64;76.13;100349.56;5048695;28;20187;-78
2021/07/28 04:08:44;;;;;;;11.25;6.03;;;;;;;19.45;75.69;100347.88;5043360;28;20080;-78
2021/07/28 04:20:06;;;;;;;7.07;5.50;;;;;;;19.62;76.21;100364.03;5036781;28;20496;-79
2021/07/28 04:26:47;;;;;;;10.85;7.20;;;;;;;19.77;77.80;100361.63;5034536;28;20060;-78
2021/07/28 04:29:14;;;;;;;8.73;5.82;;;;;;;19.80;77.89;100364.84;5034339;28;20132;-79
2021/07/28 04:31:41;;;;;;;11.50;6.20;;;;;;;19.75;77.45;100363.63;5016936;28;20045;-79
2021/07/28 04:34:09;;;;;;;13.85;6.45;;;;;;;19.65;76.92;100367.25;5034769;28;20054;-77
2021/07/28 04:40:32;;;;;;;7.20;5.22;;;;;;;19.66;77.97;100357.41;5041994;28;20040;-79
2021/07/28 04:43:24;;;;;;;10.55;5.13;;;;;;;19.59;78.28;100367.00;5030519;28;20045;-78
2021/07/28 04:50:11;;;;;;;6.13;5.53;;;;;;;19.71;76.41;100374.63;5055918;28;20583;-78
2021/07/28 04:52:38;;;;;;;6.75;5.90;;;;;;;19.80;76.50;100372.03;5034861;28;20498;-79
2021/07/28 04:55:05;;;;;;;7.72;5.60;;;;;;;19.61;77.74;100368.53;5021311;28;20077;-79
2021/07/28 04:57:35;;;;;;;8.48;5.90;;;;;;;19.50;78.81;100366.09;5036332;28;20124;-79
2021/07/28 05:00:03;;;;;;;9.40;5.20;;;;;;;19.59;79.01;100359.84;5020315;28;20084;-78
2021/07/28 05:02:30;;;;;;;6.72;5.65;;;;;;;19.56;79.20;100359.31;5033736;28;20510;-80
2021/07/28 05:04:58;;;;;;;9.73;5.75;;;;;;;19.52;78.93;100363.28;5020579;28;20509;-78
2021/07/28 05:07:25;;;;;;;6.10;5.47;;;;;;;19.54;78.50;100362.09;5001173;28;20064;-79
2021/07/28 05:09:53;;;;;;;7.07;5.63;;;;;;;19.83;77.30;100361.03;5003730;28;20522;-79
2021/07/28 05:12:20;;;;;;;6.22;5.57;;;;;;;19.80;77.39;100361.34;5053284;28;20128;-79
2021/07/28 05:14:47;;;;;;;9.32;6.03;;;;;;;19.75;77.01;100359.13;5020107;28;20041;-80
2021/07/28 05:18:14;;;;;;;9.57;5.90;;;;;;;19.83;77.29;100367.22;5033990;28;20399;-80
2021/07/28 05:20:42;;;;;;;9.45;5.10;;;;;;;19.86;75.93;100374.09;5053747;28;20064;-80
2021/07/28 05:23:09;;;;;;;7.15;5.25;;;;;;;19.93;75.37;100369.78;5051087;28;20432;-79
2021/07/28 05:25:36;;;;;;;9.27;5.95;;;;;;;20.02;74.30;100373.34;5020072;28;20132;-79
2021/07/28 05:28:06;;;;;;;9.93;5.40;;;;;;;20.05;74.92;100365.84;5033268;28;20168;-80
2021/07/28 05:30:34;;;;;;;8.02;5.28;;;;;;;20.13;75.87;100375.75;5020225;28;20068;-78
2021/07/28 05:33:01;;;;;;;10.00;5.68;;;;;;;20.03;75.96;100373.16;5016881;28;20065;-80
2021/07/28 05:35:28;;;;;;;7.40;5.90;;;;;;;19.95;78.04;100381.16;5035905;28;20060;-80
2021/07/28 05:37:59;;;;;;;13.88;6.50;;;;;;;19.92;80.11;100374.28;5032872;28;20061;-78
2021/07/28 05:40:27;;;;;;;13.20;7.03;;;;;;;19.84;80.28;100378.72;5036081;28;20103;-79
2021/07/28 05:42:55;;;;;;;12.95;6.50;;;;;;;19.94;79.66;100366.94;5017600;28;20048;-79
2021/07/28 05:45:23;;;;;;;8.52;6.43;;;;;;;19.97;79.53;100384.50;5035530;28;20052;-78
2021/07/28 05:47:50;;;;;;;9.00;6.68;;;;;;;19.86;79.88;100380.25;5035610;28;20103;-80
2021/07/28 05:50:17;;;;;;;9.13;6.80;;;;;;;19.69;81.14;100379.31;5035226;28;20128;-80
2021/07/28 05:52:47;;;;;;;9.85;6.50;;;;;;;19.69;82.00;100373.13;5019812;28;20128;-80
2021/07/28 05:55:15;;;;;;;11.05;6.65;;;;;;;19.67;81.60;100359.91;5017791;28;20152;-78
2021/07/28 05:58:48;;;;;;;6.38;5.75;;;;;;;19.87;82.02;100371.25;5035666;28;20052;-79
2021/07/28 06:01:16;;;;;;;11.57;6.93;;;;;;;19.78;81.03;100360.66;5026779;28;20121;-80
2021/07/28 06:03:43;;;;;;;9.35;6.32;;;;;;;19.86;80.56;100356.22;5023452;28;20045;-79
2021/07/28 06:06:12;;;;;;;10.18;6.22;;;;;;;20.01;80.38;100344.94;5034445;28;20045;-81
2021/07/28 06:08:41;;;;;;;10.57;6.28;;;;;;;20.23;78.91;100350.59;5027444;28;20350;-80
2021/07/28 06:11:08;;;;;;;9.98;6.20;;;;;;;20.38;75.91;100361.50;4996605;28;20144;-82
2021/07/28 06:13:35;;;;;;;12.38;7.07;;;;;;;20.53;74.18;100359.09;5021824;28;20041;-79
2021/07/28 06:16:03;;;;;;;14.65;6.55;;;;;;;20.58;73.82;100367.50;5024414;28;20099;-80
2021/07/28 06:18:30;;;;;;;8.63;6.43;;;;;;;20.79;73.30;100368.88;4996168;28;20056;-84
2021/07/28 06:20:57;;;;;;;14.05;6.15;;;;;;;20.82;71.71;100363.22;5029266;28;20148;-80
2021/07/28 06:23:24;;;;;;;8.55;6.43;;;;;;;20.89;72.71;100369.56;5041368;28;20045;-80
2021/07/28 06:25:52;;;;;;;15.52;5.80;;;;;;;20.99;71.97;100378.31;5032810;28;20171;-79
2021/07/28 06:28:19;;;;;;;7.13;5.45;;;;;;;21.01;71.01;100384.31;5014639;28;20075;-79
2021/07/28 06:30:51;;;;;;;7.07;5.18;;;;;;;21.03;67.38;100381.47;5010125;28;20061;-81
2021/07/28 06:33:19;;;;;;;9.85;4.68;;;;;;;20.99;68.46;100379.16;5028054;28;20420;-79
2021/07/28 06:35:48;;;;;;;10.77;4.40;;;;;;;20.84;70.48;100383.44;5032838;28;20442;-79
2021/07/28 06:38:16;;;;;;;9.23;5.40;;;;;;;20.89;68.97;100385.63;5011151;28;20550;-78
2021/07/28 06:40:44;;;;;;;8.00;4.65;;;;;;;20.94;67.50;100377.97;5024989;28;20041;-79
2021/07/28 06:43:13;;;;;;;7.00;5.13;;;;;;;21.05;67.86;100369.63;5037095;28;20045;-81
2021/07/28 06:45:40;;;;;;;7.45;4.95;;;;;;;21.22;64.37;100367.81;5037971;28;20574;-83
2021/07/28 06:48:07;;;;;;;6.38;4.75;;;;;;;21.58;63.14;100370.22;5028373;28;20060;-83
2021/07/28 06:50:35;;;;;;;5.68;3.90;;;;;;;21.91;62.15;100379.03;5044572;28;20057;-81
2021/07/28 06:53:03;;;;;;;10.65;4.78;;;;;;;22.10;59.63;100380.50;5010830;28;20095;-81
2021/07/28 06:55:30;;;;;;;12.07;4.30;;;;;;;21.80;57.37;100390.13;5024320;28;20451;-80
2021/07/28 06:57:59;;;;;;;8.85;3.45;;;;;;;21.63;57.85;100381.25;5027677;28;20297;-79
2021/07/28 07:00:26;;;;;;;9.73;3.47;;;;;;;21.55;57.54;100378.56;5017294;28;20049;-81
2021/07/28 07:02:58;;;;;;;13.30;4.32;;;;;;;21.56;57.26;100385.59;5030564;28;20044;-80
2021/07/28 07:05:26;;;;;;;12.73;3.97;;;;;;;21.74;55.95;100386.25;5016669;28;20053;-79
2021/07/28 07:07:54;;;;;;;7.15;4.40;;;;;;;21.88;55.44;100395.44;5022036;28;20052;-79
2021/07/28 07:10:22;;;;;;;5.32;3.80;;;;;;;21.97;54.98;100397.97;5007169;28;20101;-78
2021/07/28 07:12:49;;;;;;;7.07;3.80;;;;;;;21.91;54.50;100404.00;4996493;28;20038;-79
2021/07/28 07:15:16;;;;;;;6.45;3.80;;;;;;;21.95;54.62;100407.19;5026762;28;20049;-80
2021/07/28 07:17:43;;;;;;;9.02;3.63;;;;;;;21.78;55.26;100406.34;5045611;28;20079;-82
2021/07/28 07:20:11;;;;;;;9.25;4.57;;;;;;;21.71;56.28;100398.16;5023151;28;20052;-78
2021/07/28 07:22:38;;;;;;;6.53;4.05;;;;;;;21.71;56.51;100402.69;5046054;28;20128;-81
2021/07/28 07:25:06;;;;;;;6.38;4.57;;;;;;;21.81;56.98;100397.97;5014248;28;20021;-80
2021/07/28 07:27:34;;;;;;;13.98;4.85;;;;;;;21.91;57.10;100405.84;5028363;28;20053;-80
2021/07/28 07:30:02;;;;;;;11.85;4.82;;;;;;;22.00;57.15;100404.81;5024905;28;20111;-82
2021/07/28 07:32:29;;;;;;;7.63;5.47;;;;;;;22.03;57.79;100409.03;5008938;28;20046;-81
2021/07/28 07:35:00;;;;;;;9.30;5.30;;;;;;;22.26;57.98;100406.50;5003129;28;20502;-80
2021/07/28 07:37:28;;;;;;;8.65;5.28;;;;;;;22.34;58.39;100403.78;5011633;28;20098;-79
2021/07/28 07:39:56;;;;;;;19.23;5.90;;;;;;;22.32;58.97;100405.78;5048555;28;20041;-79
2021/07/28 07:42:23;;;;;;;9.32;6.78;;;;;;;22.84;57.66;100389.16;5005459;28;20049;-78
2021/07/28 07:44:53;;;;;;;13.10;5.82;;;;;;;23.22;56.92;100396.34;5049924;28;20078;-79
2021/07/28 07:47:20;;;;;;;10.30;5.13;;;;;;;24.31;54.54;100396.06;5006032;28;20053;-84
2021/07/28 07:49:47;;;;;;;8.52;5.90;;;;;;;25.04;52.42;100395.19;5006346;28;20463;-81
2021/07/28 07:52:15;;;;;;;10.57;5.03;;;;;;;24.48;52.68;100401.13;5015947;28;20216;-81
2021/07/28 07:54:42;;;;;;;8.85;4.82;;;;;;;27.30;46.16;100389.50;5049272;28;20091;-82
2021/07/28 07:57:09;;;;;;;7.95;4.78;;;;;;;30.40;38.52;100399.25;5022846;28;20119;-80
2021/07/28 07:59:42;;;;;;;10.55;5.43;;;;;;;32.59;34.56;100400.50;5009224;28;20133;-79
2021/07/28 08:02:09;;;;;;;6.15;4.40;;;;;;;32.57;33.63;100398.03;5010237;28;20091;-81
2021/07/28 08:04:36;;;;;;;8.60;4.25;;;;;;;33.03;33.35;100393.53;5031836;28;20484;-81
2021/07/28 08:07:03;;;;;;;9.55;4.57;;;;;;;34.05;31.69;100400.75;5019226;28;20045;-79
2021/07/28 08:09:31;;;;;;;5.97;4.50;;;;;;;34.57;30.32;100394.09;5032316;28;20120;-80
2021/07/28 08:11:58;;;;;;;8.35;4.20;;;;;;;32.69;32.81;100396.13;5046078;28;20051;-79
2021/07/28 08:14:25;;;;;;;7.95;4.85;;;;;;;31.11;36.12;100397.72;5009973;28;20124;-80
2021/07/28 08:16:53;;;;;;;7.82;5.15;;;;;;;30.18;37.97;100396.13;5045942;28;20049;-85
2021/07/28 08:19:20;;;;;;;5.50;4.72;;;;;;;29.02;40.20;100391.13;5050582;28;20049;-80
2021/07/28 08:21:47;;;;;;;6.20;4.60;;;;;;;28.46;41.78;100386.34;5051396;28;20045;-83
2021/07/28 08:24:16;;;;;;;7.00;4.40;;;;;;;28.24;42.09;100386.59;5051459;28;20090;-83
2021/07/28 08:26:43;;;;;;;7.15;4.63;;;;;;;29.22;41.36;100385.59;5046633;28;20180;-80
2021/07/28 08:29:11;;;;;;;7.03;4.20;;;;;;;29.75;39.44;100380.63;5016888;28;20055;-79
2021/07/28 08:31:42;;;;;;;8.98;4.82;;;;;;;29.79;39.68;100385.63;5021657;28;20086;-85
2021/07/28 08:34:09;;;;;;;5.70;4.63;;;;;;;30.43;38.35;100368.88;5051948;28;20140;-83
2021/07/28 08:36:36;;;;;;;8.88;4.75;;;;;;;30.51;37.92;100367.75;5044045;28;20080;-81
2021/07/28 08:39:05;;;;;;;8.48;4.93;;;;;;;30.79;37.41;100367.22;5030169;28;20036;-81
2021/07/28 08:41:34;;;;;;;7.63;4.65;;;;;;;30.32;39.08;100374.28;5015613;28;20056;-80
2021/07/28 08:44:02;;;;;;;8.48;4.85;;;;;;;30.32;39.15;100374.28;5030663;28;20047;-79
2021/07/28 08:46:33;;;;;;;8.63;5.00;;;;;;;29.92;39.87;100366.50;5031475;28;20128;-85
2021/07/28 08:49:02;;;;;;;8.25;5.00;;;;;;;29.46;40.64;100373.97;5027994;28;20373;-81
2021/07/28 08:51:29;;;;;;;10.82;5.25;;;;;;;29.47;40.80;100375.63;5043100;28;20076;-81
2021/07/28 08:54:01;;;;;;;5.03;4.07;;;;;;;28.91;41.88;100376.38;5033756;28;20068;-79
2021/07/28 08:56:30;;;;;;;8.02;4.22;;;;;;;28.65;42.88;100385.44;5023203;28;20057;-79
2021/07/28 08:58:57;;;;;;;6.90;4.80;;;;;;;28.12;43.66;100380.16;5013370;28;20431;-82
2021/07/28 09:01:24;;;;;;;10.02;4.65;;;;;;;28.00;44.24;100384.53;5050332;28;20520;-80
2021/07/28 09:03:52;;;;;;;9.88;4.80;;;;;;;27.38;45.61;100385.75;5027045;28;20468;-78
2021/07/28 09:06:29;;;;;;;9.18;4.60;;;;;;;26.82;47.16;100383.31;5013965;28;20124;-78
2021/07/28 09:08:59;;;;;;;7.85;4.50;;;;;;;27.02;47.45;100381.53;5026317;28;20059;-81
2021/07/28 09:11:27;;;;;;;7.70;4.53;;;;;;;27.56;46.67;100377.88;5049087;28;20494;-80
2021/07/28 09:14:18;;;;;;;5.40;4.90;;;;;;;27.26;47.66;100374.72;5014458;28;20045;-79
2021/07/28 09:16:46;;;;;;;6.30;4.72;;;;;;;26.95;47.18;100372.56;5022991;28;20136;-79
2021/07/28 09:19:14;;;;;;;8.20;4.30;;;;;;;26.79;48.65;100371.03;5047956;28;20408;-81
2021/07/28 09:21:41;;;;;;;11.13;5.45;;;;;;;27.23;47.16;100384.06;5018738;28;20124;-80
2021/07/28 09:24:11;;;;;;;5.53;4.50;;;;;;;27.51;46.23;100385.75;5034592;28;20443;-79
2021/07/28 09:29:15;;;;;;;6.13;4.63;;;;;;;27.22;46.22;100390.53;5033456;28;20136;-80
2021/07/28 09:31:45;;;;;;;4.78;4.25;;;;;;;27.62;44.91;100379.75;5028911;28;20136;-78
2021/07/28 09:34:24;;;;;;;5.10;4.00;;;;;;;27.45;45.54;100383.91;4994439;28;20126;-78
2021/07/28 09:36:56;;;;;;;5.30;3.78;;;;;;;27.88;44.53;100394.34;5049179;28;20044;-82
2021/07/28 09:39:31;;;;;;;5.03;3.65;;;;;;;27.93;42.69;100391.84;5011585;28;20408;-78
2021/07/28 09:41:59;;;;;;;;;;;;;;;27.74;42.57;100385.41;5012513;28;20352;-80
2021/07/28 09:44:31;;;;;;;3.97;3.40;;;;;;;27.43;43.59;100386.81;5017791;28;19925;-81
2021/07/28 09:47:01;;;;;;;4.20;3.22;;;;;;;27.99;42.32;100391.00;5013469;28;20080;-81
2021/07/28 09:49:47;;;;;;;4.03;3.45;;;;;;;28.03;42.45;100384.13;5049683;28;20382;-79
2021/07/28 09:52:34;;;;;;;4.03;3.60;;;;;;;28.07;42.42;100387.25;5031447;28;20124;-80
2021/07/28 09:55:24;;;;;;;4.15;3.10;;;;;;;28.09;42.51;100383.28;5036925;28;20086;-83
2021/07/28 09:57:58;;;;;;;6.95;3.42;;;;;;;27.70;42.06;100382.25;5023189;28;20077;-79
2021/07/28 10:00:29;;;;;;;5.45;3.30;;;;;;;27.42;42.86;100389.72;5028496;28;20045;-80
2021/07/28 10:03:00;;;;;;;3.80;3.45;;;;;;;27.77;42.39;100384.97;5049893;28;20053;-79
2021/07/28 10:05:33;;;;;;;5.22;3.53;;;;;;;28.05;41.38;100382.03;5017661;28;20049;-79
2021/07/28 10:08:02;;;;;;;4.32;3.85;;;;;;;27.82;41.70;100384.34;5047010;28;20075;-84
2021/07/28 10:10:30;;;;;;;4.43;3.92;;;;;;;27.71;42.63;100373.09;5034368;28;20083;-81
2021/07/28 10:12:58;;;;;;;5.22;3.85;;;;;;;27.64;42.18;100374.97;5015674;28;20036;-79
2021/07/28 10:15:26;;;;;;;4.88;3.95;;;;;;;28.12;41.19;100376.63;5032912;28;20551;-79
2021/07/28 10:17:54;;;;;;;5.53;3.17;;;;;;;27.61;42.14;100375.41;5046740;28;20045;-79
2021/07/28 10:20:22;;;;;;;7.65;3.45;;;;;;;27.55;42.35;100368.09;5020509;28;20056;-78
2021/07/28 10:23:13;;;;;;;11.10;4.15;;;;;;;27.73;42.13;100368.31;5041579;28;20049;-78
2021/07/28 10:25:40;;;;;;;8.40;3.42;;;;;;;27.68;41.26;100357.28;5022116;28;20076;-79
2021/07/28 10:28:08;;;;;;;4.63;3.53;;;;;;;27.06;42.50;100369.25;4993652;28;20151;-82
2021/07/28 10:30:35;;;;;;;4.63;3.38;;;;;;;27.14;42.06;100371.78;4999381;28;20229;-83
2021/07/28 10:33:30;;;;;;;3.75;3.35;;;;;;;27.22;41.79;100370.78;5011440;28;20041;-80
2021/07/28 10:36:01;;;;;;;15.90;4.05;;;;;;;26.44;43.60;100368.41;5012505;28;20102;-78
2021/07/28 10:38:31;;;;;;;6.35;3.60;;;;;;;27.32;42.06;100365.78;5013116;28;20067;-79
2021/07/28 10:40:59;;;;;;;5.60;3.53;;;;;;;27.50;41.91;100363.31;5026194;28;20488;-79
2021/07/28 10:43:26;;;;;;;13.00;3.75;;;;;;;27.24;41.96;100363.28;5046532;28;20063;-78
2021/07/28 10:45:55;;;;;;;15.25;4.38;;;;;;;27.16;42.42;100375.13;5025013;28;20049;-85
2021/07/28 10:48:41;;;;;;;7.63;4.00;;;;;;;26.56;44.44;100359.72;5002642;28;20056;-78
2021/07/28 10:51:08;;;;;;;4.63;3.70;;;;;;;26.78;43.86;100361.28;5024699;28;20064;-81
2021/07/28 10:53:48;;;;;;;5.00;3.83;;;;;;;27.49;42.17;100363.53;4991408;28;20092;-81
2021/07/28 10:56:21;;;;;;;7.25;3.55;;;;;;;28.02;41.27;100364.34;4998199;28;20049;-78
2021/07/28 10:58:48;;;;;;;7.03;3.90;;;;;;;28.00;40.85;100358.31;5005556;28;20404;-79
2021/07/28 11:01:16;;;;;;;6.20;3.42;;;;;;;27.69;41.63;100361.66;5012704;28;20458;-80
2021/07/28 11:03:43;;;;;;;7.93;3.78;;;;;;;27.74;41.68;100361.06;5007707;28;20051;-80
2021/07/28 11:06:14;;;;;;;4.30;3.08;;;;;;;27.76;40.99;100365.22;5044132;28;20152;-79
2021/07/28 11:08:42;;;;;;;7.15;3.65;;;;;;;28.01;39.30;100359.16;5030475;28;20416;-80
2021/07/28 11:11:09;;;;;;;4.45;3.72;;;;;;;27.86;40.30;100364.78;5012689;28;20314;-78
2021/07/28 11:13:43;;;;;;;4.85;3.47;;;;;;;28.15;40.29;100360.78;4997630;28;20056;-79
2021/07/28 11:16:11;;;;;;;4.53;3.55;;;;;;;28.07;41.13;100362.91;5002132;28;20080;-80
2021/07/28 11:18:45;;;;;;;9.90;3.92;;;;;;;28.23;40.51;100355.16;5043809;28;20083;-81
2021/07/28 11:21:13;;;;;;;14.65;4.88;;;;;;;28.20;40.43;100361.00;4998962;28;20045;-80
2021/07/28 11:23:43;;;;;;;15.20;4.20;;;;;;;28.14;40.02;100352.88;5046226;28;20592;-78
2021/07/28 11:26:22;;;;;;;3.60;3.22;;;;;;;28.31;39.27;100353.25;5030441;28;20144;-82
2021/07/28 11:28:55;;;;;;;5.40;3.05;;;;;;;28.77;37.45;100358.50;5028354;28;20037;-80
2021/07/28 11:31:26;;;;;;;4.25;3.42;;;;;;;28.80;37.34;100359.97;5009000;28;20080;-80
2021/07/28 11:34:14;;;;;;;3.95;3.35;;;;;;;28.40;38.20;100362.84;5047305;28;20530;-77
2021/07/28 11:36:46;;;;;;;7.53;3.55;;;;;;;28.38;37.25;100356.81;5006322;28;20133;-79
2021/07/28 11:39:18;;;;;;;5.22;2.85;;;;;;;27.69;37.12;100360.81;5018634;28;20058;-79
2021/07/28 11:41:47;;;;;;;5.00;3.40;;;;;;;27.30;39.29;100365.19;5003617;28;20045;-80
2021/07/28 11:44:15;;;;;;;8.20;3.33;;;;;;;27.95;37.57;100360.81;5041751;28;20037;-79
2021/07/28 11:46:53;;;;;;;5.82;3.83;;;;;;;28.05;37.71;100363.09;5047404;28;20076;-80
2021/07/28 11:49:25;;;;;;;9.75;3.50;;;;;;;28.33;37.60;100362.84;5051949;28;20042;-82
2021/07/28 11:51:57;;;;;;;9.25;3.38;;;;;;;28.06;38.33;100370.19;5016610;28;20087;-79
2021/07/28 11:54:25;;;;;;;4.60;3.17;;;;;;;28.13;37.44;100354.75;5029477;28;20044;-79
2021/07/28 11:56:53;;;;;;;7.55;3.58;;;;;;;28.07;38.02;100374.56;5051011;28;20182;-80
2021/07/28 11:59:23;;;;;;;7.53;3.95;;;;;;;27.76;39.23;100367.91;5030098;28;20575;-79
2021/07/28 12:01:58;;;;;;;3.80;3.20;;;;;;;28.18;37.20;100368.47;5025684;28;20045;-78
2021/07/28 12:04:27;;;;;;;8.18;3.63;;;;;;;27.81;37.58;100367.28;5001283;28;20076;-81
2021/07/28 12:07:12;;;;;;;3.67;2.97;;;;;;;28.39;37.62;100367.41;5033158;28;20507;-80
2021/07/28 12:09:40;;;;;;;5.60;3.80;;;;;;;28.07;38.70;100377.25;5040229;28;20417;-78
2021/07/28 12:12:21;;;;;;;6.07;3.30;;;;;;;27.84;39.46;100377.72;5034759;28;20195;-80
2021/07/28 12:14:49;;;;;;;5.78;3.53;;;;;;;27.96;38.29;100372.47;5032483;28;20049;-79
2021/07/28 12:17:16;;;;;;;4.22;3.10;;;;;;;28.18;38.49;100373.88;5029885;28;20049;-80
2021/07/28 12:20:14;;;;;;;7.13;3.67;;;;;;;28.25;38.66;100374.72;5015690;28;20144;-79
2021/07/28 12:22:46;;;;;;;5.72;2.95;;;;;;;28.14;39.22;100378.06;5046133;28;20056;-79